Time;durP1;ratioP1;P1;durP2;ratioP2;P2;SDS_P1;SDS_P2;PMS_P1;PMS_P2;Temp;Humidity;BMP_temperature;BMP_pressure;BME280_temperature;BME280_humidity;BME280_pressure;Samples;Min_cycle;Max_cycle;Signal;HPM_P1;HPM_P2
2023/07/27 00:02:17;;;;;;;9.77;5.22;;;;;;;29.10;60.26;100605.50;5056268;28;70188;-38
2023/07/27 00:04:48;;;;;;;15.35;6.10;;;;;;;29.07;61.48;100605.13;5051516;28;65486;-37
2023/07/27 00:07:19;;;;;;;23.13;6.10;;;;;;;29.16;61.48;100614.63;5054627;28;69497;-38
2023/07/27 00:09:51;;;;;;;30.35;6.00;;;;;;;29.27;62.49;100622.06;5060033;28;65716;-39
2023/07/27 00:12:23;;;;;;;28.77;6.53;;;;;;;29.15;62.00;100599.47;5059804;28;69510;-39
2023/07/27 00:14:54;;;;;;;13.40;6.68;;;;;;;29.38;63.49;100634.88;5051054;28;65771;-39
2023/07/27 00:17:26;;;;;;;43.92;7.60;;;;;;;29.41;63.83;100633.63;5059854;28;69397;-40
2023/07/27 00:19:58;;;;;;;17.23;6.63;;;;;;;29.47;64.23;100643.56;5046870;28;65630;-38
2023/07/27 00:22:29;;;;;;;12.40;6.30;;;;;;;29.51;65.19;100646.69;5052799;28;70502;-40
2023/07/27 00:25:01;;;;;;;16.92;6.22;;;;;;;29.45;65.57;100634.00;5047543;28;65330;-40
2023/07/27 00:27:33;;;;;;;17.38;7.15;;;;;;;29.58;66.25;100653.69;5047775;28;70306;-39
2023/07/27 00:30:05;;;;;;;18.48;7.00;;;;;;;29.59;67.34;100644.53;5040478;28;65038;-38
2023/07/27 00:32:36;;;;;;;13.57;7.50;;;;;;;29.48;68.96;100623.59;5051633;28;70050;-38
2023/07/27 00:35:08;;;;;;;18.50;7.68;;;;;;;29.64;69.06;100653.88;5052120;28;66321;-41
2023/07/27 00:37:39;;;;;;;11.00;7.07;;;;;;;29.69;68.83;100657.59;5056251;28;70284;-40
2023/07/27 00:40:12;;;;;;;14.20;7.70;;;;;;;29.79;68.59;100657.97;5055116;28;65840;-38
2023/07/27 00:42:43;;;;;;;22.48;7.32;;;;;;;29.64;68.53;100629.56;5049055;28;70187;-38
2023/07/27 00:45:15;;;;;;;18.67;7.95;;;;;;;29.50;68.94;100615.28;5053569;28;65426;-38
2023/07/27 00:47:47;;;;;;;13.27;7.80;;;;;;;29.84;69.04;100677.06;5047787;28;68857;-37
2023/07/27 00:50:19;;;;;;;12.50;7.30;;;;;;;29.94;68.66;100686.56;5053641;28;65506;-38
2023/07/27 00:52:53;;;;;;;10.35;7.07;;;;;;;29.94;68.83;100675.75;5060440;28;69713;-37
2023/07/27 00:55:25;;;;;;;15.23;7.75;;;;;;;29.79;69.08;100647.16;5048993;28;66120;-37
2023/07/27 00:57:58;;;;;;;11.57;7.68;;;;;;;29.99;69.49;100694.84;5049568;28;70039;-37
2023/07/27 01:00:31;;;;;;;10.65;7.00;;;;;;;29.73;69.07;100637.22;5052621;28;66379;-38
2023/07/27 01:03:03;;;;;;;7.70;6.85;;;;;;;30.02;68.88;100683.59;5042757;28;70850;-38
2023/07/27 01:05:37;;;;;;;6.35;5.70;;;;;;;29.93;69.00;100674.91;5051126;28;66268;-38
2023/07/27 01:08:09;;;;;;;11.63;6.18;;;;;;;30.05;69.54;100696.69;5042809;28;70523;-38
2023/07/27 01:11:16;;;;;;;8.70;6.50;;;;;;;29.83;69.22;100679.97;5048901;28;66454;-38
2023/07/27 01:14:15;;;;;;;10.75;7.15;;;;;;;29.97;69.61;100707.75;5037494;28;70135;-37
2023/07/27 01:17:04;;;;;;;10.20;6.88;;;;;;;29.57;69.91;100632.28;5039512;28;66571;-38
2023/07/27 01:19:53;;;;;;;6.55;5.95;;;;;;;30.10;69.30;100709.56;5050851;28;69150;-37
2023/07/27 01:22:31;;;;;;;6.35;5.82;;;;;;;30.10;69.72;100713.09;5041362;28;66680;-38
2023/07/27 01:25:07;;;;;;;12.13;5.72;;;;;;;29.54;69.87;100630.03;5040752;28;69970;-36
2023/07/27 01:28:08;;;;;;;8.77;6.03;;;;;;;29.93;70.00;100717.38;5044046;28;65978;-38
2023/07/27 01:31:06;;;;;;;8.20;6.20;;;;;;;30.13;69.59;100726.16;5045680;28;69458;-37
2023/07/27 01:33:46;;;;;;;8.10;5.85;;;;;;;30.10;69.99;100717.66;5054248;28;66535;-38
2023/07/27 01:36:27;;;;;;;13.52;6.30;;;;;;;29.49;69.55;100627.13;5037622;28;69257;-38
2023/07/27 01:39:04;;;;;;;9.00;6.03;;;;;;;29.68;69.82;100650.53;5053875;28;64957;-37
2023/07/27 01:41:41;;;;;;;6.88;5.68;;;;;;;30.20;69.73;100748.59;5053060;28;70665;-38
2023/07/27 01:44:14;;;;;;;8.70;5.65;;;;;;;30.25;69.81;100742.53;5053534;28;65769;-37
2023/07/27 01:46:46;;;;;;;12.10;5.43;;;;;;;30.26;70.15;100739.63;5050853;28;69269;-37
2023/07/27 01:49:20;;;;;;;7.57;5.65;;;;;;;30.22;69.89;100727.56;5054050;28;66819;-39
2023/07/27 01:51:52;;;;;;;6.50;5.35;;;;;;;30.30;69.71;100744.59;5055726;28;70169;-38
2023/07/27 01:54:25;;;;;;;6.22;5.65;;;;;;;30.26;69.97;100755.03;5052748;28;65904;-38
2023/07/27 01:56:58;;;;;;;6.43;4.97;;;;;;;30.32;69.75;100745.22;5057042;28;70228;-38
2023/07/27 01:59:31;;;;;;;6.00;5.40;;;;;;;30.34;69.91;100743.09;5055556;28;66652;-38
2023/07/27 02:02:03;;;;;;;5.30;4.75;;;;;;;30.32;70.35;100731.69;5043213;28;70395;-38
2023/07/27 02:04:35;;;;;;;6.25;5.03;;;;;;;30.24;69.99;100714.66;5033575;28;66701;-37
2023/07/27 02:07:07;;;;;;;5.57;5.07;;;;;;;30.30;70.31;100722.97;5051806;28;69683;-39
2023/07/27 02:09:40;;;;;;;5.55;5.05;;;;;;;30.40;70.11;100728.72;5053911;28;65975;-38
2023/07/27 02:12:29;;;;;;;5.85;5.25;;;;;;;30.32;70.58;100731.69;5050309;28;70479;-38
2023/07/27 02:15:17;;;;;;;5.75;4.78;;;;;;;30.28;70.22;100721.31;5042678;28;66652;-38
2023/07/27 02:17:57;;;;;;;5.38;4.78;;;;;;;30.27;69.93;100691.75;5045170;28;70738;-38
2023/07/27 02:20:33;;;;;;;4.60;4.15;;;;;;;30.43;70.11;100722.84;5053566;28;66820;-39
2023/07/27 02:23:07;;;;;;;8.98;4.30;;;;;;;30.50;69.95;100734.44;5045623;28;69315;-39
2023/07/27 02:25:39;;;;;;;5.53;4.55;;;;;;;30.51;69.74;100719.88;5056183;28;65368;-38
2023/07/27 02:28:11;;;;;;;4.70;4.30;;;;;;;30.55;70.20;100712.13;5056311;28;70428;-37
2023/07/27 02:30:42;;;;;;;8.80;4.15;;;;;;;30.49;69.96;100700.31;5055449;28;65848;-38
2023/07/27 02:33:14;;;;;;;4.80;4.35;;;;;;;30.15;69.80;100645.63;5054750;28;69300;-38
2023/07/27 02:35:46;;;;;;;4.28;3.88;;;;;;;30.30;70.23;100664.25;5046583;28;66607;-40
2023/07/27 02:38:17;;;;;;;4.97;4.38;;;;;;;30.60;70.13;100706.88;5055863;28;69940;-38
2023/07/27 02:40:50;;;;;;;4.68;4.28;;;;;;;30.50;69.98;100680.31;5064749;28;65694;-39
2023/07/27 02:43:22;;;;;;;6.60;5.05;;;;;;;30.26;70.04;100644.09;5069616;28;70314;-38
2023/07/27 02:46:04;;;;;;;7.32;4.57;;;;;;;30.55;70.49;100701.31;5053530;28;65647;-37
2023/07/27 02:48:36;;;;;;;5.93;4.68;;;;;;;30.63;69.62;100695.59;5057522;28;69265;-38
2023/07/27 02:51:08;;;;;;;5.82;4.35;;;;;;;30.67;70.06;100708.47;5070258;28;66636;-38
2023/07/27 02:53:39;;;;;;;4.93;4.28;;;;;;;30.67;70.02;100703.06;5053118;28;69276;-39
2023/07/27 02:56:21;;;;;;;5.03;4.63;;;;;;;30.68;70.20;100703.88;5057932;28;66487;-38
2023/07/27 02:58:52;;;;;;;7.00;4.40;;;;;;;30.69;69.70;100700.94;5059884;28;68930;-38
2023/07/27 03:01:24;;;;;;;7.88;5.20;;;;;;;30.60;70.20;100691.47;5056230;28;65633;-38
2023/07/27 03:04:04;;;;;;;4.60;4.20;;;;;;;30.72;70.35;100702.38;5056942;28;69559;-38
2023/07/27 03:06:39;;;;;;;4.88;4.35;;;;;;;30.63;70.13;100684.78;5045503;28;65635;-38
2023/07/27 03:09:11;;;;;;;8.80;5.40;;;;;;;30.62;70.42;100683.94;5039150;28;69482;-39
2023/07/27 03:11:42;;;;;;;7.05;4.70;;;;;;;30.76;69.97;100711.72;5050965;28;64765;-39
2023/07/27 03:14:14;;;;;;;6.85;5.25;;;;;;;30.78;70.37;100704.19;5060988;28;70409;-37
2023/07/27 03:16:46;;;;;;;6.03;4.82;;;;;;;30.65;70.12;100683.50;5056306;28;66026;-38
2023/07/27 03:19:18;;;;;;;7.90;4.57;;;;;;;30.79;70.05;100703.16;5047668;28;68938;-38
2023/07/27 03:21:49;;;;;;;7.10;5.22;;;;;;;30.80;70.28;100707.53;5055650;28;65228;-38
2023/07/27 03:24:22;;;;;;;8.65;5.45;;;;;;;30.67;70.40;100681.41;5058906;28;70844;-39
2023/07/27 03:26:54;;;;;;;7.90;5.10;;;;;;;30.79;70.42;100705.03;5056181;28;66210;-38
2023/07/27 03:29:25;;;;;;;7.05;4.30;;;;;;;30.82;70.46;100704.63;5056028;28;69621;-37
2023/07/27 03:31:57;;;;;;;9.75;5.05;;;;;;;30.11;70.14;100593.00;5055020;28;66061;-39
2023/07/27 03:34:28;;;;;;;8.23;4.97;;;;;;;30.82;70.36;100700.03;5054185;28;68765;-38
2023/07/27 03:37:00;;;;;;;8.80;5.30;;;;;;;30.46;70.69;100642.03;5054610;28;66531;-39
2023/07/27 03:39:32;;;;;;;8.50;5.18;;;;;;;30.85;70.64;100705.00;5054223;28;70260;-37
2023/07/27 03:42:05;;;;;;;8.52;5.72;;;;;;;30.86;70.23;100703.09;5067030;27;65718;-38
2023/07/27 03:44:37;;;;;;;;;;;;;;;30.53;71.80;100696.09;5050387;28;70766;-38
2023/07/27 03:47:08;;;;;;;5.33;4.73;;;;;;;30.79;70.71;100680.66;5061592;28;65939;-39
2023/07/27 03:49:40;;;;;;;9.85;5.10;;;;;;;30.65;70.92;100655.59;5054821;28;69264;-38
2023/07/27 03:52:11;;;;;;;7.38;5.60;;;;;;;30.59;70.88;100646.50;5059031;28;65929;-38
2023/07/27 03:54:43;;;;;;;7.55;5.43;;;;;;;30.89;70.84;100680.97;5050316;28;70229;-38
2023/07/27 03:57:15;;;;;;;13.32;5.40;;;;;;;30.92;71.17;100677.81;5045042;28;66562;-39
2023/07/27 03:59:46;;;;;;;8.55;5.57;;;;;;;30.71;71.48;100638.47;5055765;28;69583;-38
2023/07/27 04:02:18;;;;;;;7.97;5.25;;;;;;;30.69;71.78;100619.72;5059227;28;66028;-39
2023/07/27 04:04:49;;;;;;;7.85;5.13;;;;;;;30.93;71.85;100650.53;5050426;28;70024;-39
2023/07/27 04:07:21;;;;;;;9.15;5.78;;;;;;;30.94;71.93;100651.34;5049752;28;66544;-39
2023/07/27 04:09:53;;;;;;;7.63;5.43;;;;;;;30.73;71.41;100603.88;5058334;28;70323;-39
2023/07/27 04:12:25;;;;;;;7.03;5.68;;;;;;;30.88;71.98;100633.28;5055861;28;65475;-39
2023/07/27 04:14:56;;;;;;;;;;;;;;;30.62;74.21;100642.50;5051226;28;69511;-37
2023/07/27 04:17:28;;;;;;;8.07;5.55;;;;;;;30.93;71.94;100625.31;5052687;28;66580;-39
2023/07/27 04:19:59;;;;;;;12.35;6.43;;;;;;;30.94;72.46;100632.38;5045604;28;69986;-38
2023/07/27 04:22:31;;;;;;;9.10;5.40;;;;;;;31.02;71.74;100631.25;5060532;28;66071;-39
2023/07/27 04:25:03;;;;;;;9.35;5.88;;;;;;;30.88;72.13;100606.22;5050865;28;70115;-39
2023/07/27 04:27:34;;;;;;;;;;;;;;;30.70;74.59;100628.66;5041467;28;64161;-39
2023/07/27 04:30:06;;;;;;;8.38;5.85;;;;;;;31.01;72.65;100614.19;5044642;28;69797;-40
2023/07/27 04:32:38;;;;;;;13.50;5.85;;;;;;;31.02;72.76;100610.41;5053681;28;65979;-38
2023/07/27 04:35:10;;;;;;;11.52;5.72;;;;;;;30.94;72.90;100589.03;5046099;28;69888;-38
2023/07/27 04:37:41;;;;;;;10.02;5.80;;;;;;;31.04;72.87;100589.34;5059575;28;65367;-39
2023/07/27 04:40:14;;;;;;;7.72;5.25;;;;;;;30.97;73.08;100569.63;5056182;28;70680;-39
2023/07/27 04:42:46;;;;;;;6.43;5.15;;;;;;;31.03;73.09;100571.41;5042147;28;65518;-40
2023/07/27 04:45:18;;;;;;;10.45;5.30;;;;;;;31.01;73.20;100562.72;5043721;28;69919;-39
2023/07/27 04:47:49;;;;;;;5.75;5.00;;;;;;;31.00;73.21;100566.47;5055138;28;66252;-40
2023/07/27 04:50:21;;;;;;;7.47;5.53;;;;;;;30.95;73.53;100547.34;5050775;28;68654;-38
2023/07/27 04:52:52;;;;;;;6.38;5.13;;;;;;;30.89;72.97;100532.03;5054161;28;66202;-39
2023/07/27 04:55:24;;;;;;;10.05;5.85;;;;;;;30.98;73.07;100541.50;5054624;28;70009;-38
2023/07/27 04:57:55;;;;;;;9.05;5.90;;;;;;;30.79;73.27;100510.06;5053778;28;66220;-40
2023/07/27 05:00:27;;;;;;;7.07;4.57;;;;;;;30.96;73.35;100531.94;5051358;28;70897;-41
2023/07/27 05:02:59;;;;;;;5.60;5.10;;;;;;;30.98;73.20;100533.38;5055100;28;65783;-39
2023/07/27 05:05:29;;;;;;;;;;;;;;;30.63;76.17;100531.28;5055478;28;69998;-41
2023/07/27 05:08:01;;;;;;;6.57;5.00;;;;;;;30.91;73.79;100514.50;5056164;28;65707;-38
2023/07/27 05:10:32;;;;;;;8.15;5.10;;;;;;;30.97;73.63;100512.75;5054600;28;70139;-39
2023/07/27 05:13:04;;;;;;;5.20;4.60;;;;;;;30.98;73.13;100514.41;5053507;28;66281;-39
2023/07/27 05:15:40;;;;;;;9.48;5.47;;;;;;;31.01;73.00;100500.41;5054417;28;69826;-39
2023/07/27 05:18:13;;;;;;;8.55;4.90;;;;;;;31.04;72.95;100502.66;5051712;28;65660;-40
2023/07/27 05:20:45;;;;;;;7.03;4.80;;;;;;;31.02;72.88;100493.94;5052275;28;70519;-39
2023/07/27 05:23:16;;;;;;;4.97;4.47;;;;;;;30.92;72.87;100463.84;5055249;28;66261;-40
2023/07/27 05:25:49;;;;;;;4.43;3.72;;;;;;;30.97;72.92;100485.66;5054172;28;70040;-41
2023/07/27 05:28:20;;;;;;;6.35;4.78;;;;;;;31.08;73.01;100493.00;5053567;28;66227;-41
2023/07/27 05:30:52;;;;;;;5.70;5.15;;;;;;;30.95;73.01;100471.50;5049332;28;70248;-39
2023/07/27 05:33:24;;;;;;;5.68;5.18;;;;;;;31.07;72.91;100485.13;5056045;28;65971;-40
2023/07/27 05:35:55;;;;;;;;;;;;;;;30.74;75.11;100502.63;5057107;28;70032;-39
2023/07/27 05:38:26;;;;;;;7.03;4.82;;;;;;;31.05;73.25;100479.91;5053232;28;66370;-39
2023/07/27 05:41:03;;;;;;;7.22;5.15;;;;;;;31.07;73.60;100479.69;5056173;28;69932;-39
2023/07/27 05:43:50;;;;;;;6.40;5.07;;;;;;;30.45;73.67;100379.72;5055585;28;66331;-40
2023/07/27 05:46:22;;;;;;;8.23;5.25;;;;;;;31.11;73.20;100460.03;5051871;28;69347;-39
2023/07/27 05:48:54;;;;;;;6.07;5.18;;;;;;;31.12;73.30;100450.84;5053115;28;66089;-39
2023/07/27 05:51:26;;;;;;;5.57;5.00;;;;;;;31.12;73.17;100467.13;5055454;28;70675;-38
2023/07/27 05:54:01;;;;;;;6.32;5.10;;;;;;;31.14;73.29;100481.22;5051645;28;66427;-39
2023/07/27 05:56:32;;;;;;;;;;;;;;;30.81;75.43;100475.47;5058119;28;69896;-39
2023/07/27 05:59:05;;;;;;;7.27;5.47;;;;;;;31.11;73.64;100470.03;5050880;28;65410;-38
2023/07/27 06:01:37;;;;;;;8.80;5.13;;;;;;;31.15;73.53;100466.66;5055593;28;70024;-38
2023/07/27 06:04:08;;;;;;;6.65;4.82;;;;;;;31.16;73.51;100457.44;5051135;28;65333;-38
2023/07/27 06:06:45;;;;;;;6.15;4.80;;;;;;;31.13;73.80;100455.22;5044117;28;69287;-38
2023/07/27 06:09:17;;;;;;;4.97;4.47;;;;;;;31.20;73.34;100440.72;5054905;28;66170;-39
2023/07/27 06:11:48;;;;;;;5.53;4.80;;;;;;;31.21;73.14;100442.41;5054139;28;70365;-38
2023/07/27 06:14:20;;;;;;;5.43;4.30;;;;;;;31.21;72.98;100439.69;5053436;28;66522;-39
2023/07/27 06:16:51;;;;;;;;;;;;;;;30.88;74.88;100439.13;5054285;28;70106;-38
2023/07/27 06:19:23;;;;;;;5.25;4.32;;;;;;;31.08;73.52;100414.44;5053259;28;66746;-38
2023/07/27 06:21:54;;;;;;;4.72;4.32;;;;;;;31.24;73.15;100431.91;5051979;28;70278;-39
2023/07/27 06:24:26;;;;;;;8.13;4.40;;;;;;;31.27;72.62;100431.44;5055009;28;66248;-40
2023/07/27 06:26:58;;;;;;;5.45;4.13;;;;;;;31.14;72.89;100404.56;5043208;28;69989;-38
2023/07/27 06:29:30;;;;;;;4.68;4.28;;;;;;;31.36;72.94;100429.22;5051014;28;65631;-39
2023/07/27 06:32:02;;;;;;;5.10;4.60;;;;;;;31.39;72.70;100423.34;5051340;28;70459;-40
2023/07/27 06:34:34;;;;;;;4.55;4.15;;;;;;;31.41;72.52;100421.22;5056748;28;65136;-41
2023/07/27 06:37:07;;;;;;;4.57;4.10;;;;;;;31.44;72.82;100409.91;5057801;28;70050;-39
2023/07/27 06:39:49;;;;;;;5.30;3.90;;;;;;;31.44;72.37;100393.66;5050722;28;66340;-38
2023/07/27 06:42:23;;;;;;;4.15;3.75;;;;;;;31.49;72.28;100385.63;5054045;28;70760;-39
2023/07/27 06:44:54;;;;;;;5.35;3.80;;;;;;;31.54;72.28;100398.50;5054746;28;65254;-38
2023/07/27 06:47:26;;;;;;;7.93;3.92;;;;;;;31.56;72.68;100383.63;5054850;28;70154;-38
2023/07/27 06:49:58;;;;;;;4.05;3.60;;;;;;;31.57;72.15;100376.34;5054218;28;66365;-39
2023/07/27 06:52:29;;;;;;;5.28;3.92;;;;;;;31.16;72.31;100305.72;5051134;28;67958;-39
2023/07/27 06:55:01;;;;;;;11.13;4.88;;;;;;;31.54;72.64;100372.22;5054388;28;66362;-40
2023/07/27 06:57:32;;;;;;;5.10;3.72;;;;;;;31.59;72.24;100363.34;5052841;28;69280;-39
2023/07/27 07:00:06;;;;;;;11.23;4.72;;;;;;;31.73;72.33;100369.34;5053645;28;65971;-40
2023/07/27 07:02:37;;;;;;;6.50;4.18;;;;;;;31.76;72.33;100358.00;5054626;28;70357;-39
2023/07/27 07:05:09;;;;;;;6.70;4.15;;;;;;;31.78;72.34;100361.31;5055857;28;66358;-39
2023/07/27 07:07:41;;;;;;;8.60;4.68;;;;;;;31.76;72.30;100352.59;5040163;28;70012;-39
2023/07/27 07:10:12;;;;;;;9.35;4.00;;;;;;;31.77;72.41;100343.41;5049838;28;65838;-41
2023/07/27 07:12:43;;;;;;;;;;;;;;;31.51;74.00;100359.13;5054622;28;69887;-39
2023/07/27 07:15:15;;;;;;;6.53;4.63;;;;;;;31.80;72.34;100342.91;5056466;27;66971;-39
2023/07/27 07:17:47;;;;;;;13.85;4.75;;;;;;;31.76;72.33;100333.59;5056517;28;70526;-39
2023/07/27 07:20:19;;;;;;;7.57;4.55;;;;;;;31.85;72.48;100329.47;5053415;28;65713;-38
2023/07/27 07:22:50;;;;;;;13.05;4.78;;;;;;;31.80;72.24;100310.38;5053118;28;70393;-38
2023/07/27 07:25:22;;;;;;;;;;;;;;;31.57;74.15;100322.94;5051177;28;66753;-39
2023/07/27 07:27:53;;;;;;;12.65;4.55;;;;;;;31.88;72.42;100334.41;5052423;28;69828;-39
2023/07/27 07:30:24;;;;;;;7.90;5.13;;;;;;;31.86;72.20;100339.25;5051568;28;66059;-38
2023/07/27 07:32:56;;;;;;;8.25;4.63;;;;;;;31.90;72.13;100342.28;5051131;28;70055;-38
2023/07/27 07:35:27;;;;;;;6.25;4.72;;;;;;;31.92;72.15;100346.44;5049213;28;65842;-41
2023/07/27 07:37:59;;;;;;;9.38;4.80;;;;;;;31.88;72.09;100328.16;5056199;28;69185;-38
2023/07/27 07:40:30;;;;;;;5.30;4.80;;;;;;;31.91;71.98;100333.97;5054821;28;65908;-38
2023/07/27 07:43:02;;;;;;;8.20;5.93;;;;;;;31.97;72.05;100346.56;5057052;28;70811;-38
2023/07/27 07:45:36;;;;;;;7.75;5.05;;;;;;;31.91;72.06;100330.41;5053543;28;66765;-39
2023/07/27 07:48:08;;;;;;;8.75;5.28;;;;;;;31.86;71.70;100314.84;5058634;28;69988;-39
2023/07/27 07:50:40;;;;;;;8.85;4.60;;;;;;;32.00;72.08;100320.84;5059753;28;65669;-39
2023/07/27 07:53:11;;;;;;;13.85;5.63;;;;;;;32.01;71.86;100309.75;5056150;28;70112;-39
2023/07/27 07:55:55;;;;;;;11.77;5.60;;;;;;;32.03;71.62;100313.03;5056185;28;66247;-38
2023/07/27 07:58:26;;;;;;;9.70;6.82;;;;;;;31.93;71.75;100304.72;5057022;28;70580;-39
2023/07/27 08:00:58;;;;;;;10.80;5.78;;;;;;;31.90;71.77;100298.91;5057770;28;66196;-39
2023/07/27 08:03:29;;;;;;;8.65;6.00;;;;;;;32.02;71.70;100305.16;5060886;28;69923;-40
2023/07/27 08:06:01;;;;;;;10.13;6.43;;;;;;;31.92;71.43;100291.38;5056240;28;65858;-40
2023/07/27 08:08:32;;;;;;;;;;;;;;;31.77;72.47;100305.44;5058184;28;69642;-39
2023/07/27 08:11:04;;;;;;;13.60;6.45;;;;;;;32.03;71.51;100314.94;5055031;28;66782;-39
2023/07/27 08:13:36;;;;;;;12.00;6.25;;;;;;;32.03;71.46;100309.50;5056708;28;70081;-41
2023/07/27 08:16:07;;;;;;;6.80;6.15;;;;;;;31.90;71.41;100279.91;5057297;28;65212;-39
2023/07/27 08:18:39;;;;;;;8.73;6.25;;;;;;;32.08;71.48;100311.50;5054629;28;70150;-39
2023/07/27 08:21:11;;;;;;;14.07;7.68;;;;;;;31.60;71.49;100241.13;5053973;28;66474;-39
2023/07/27 08:23:42;;;;;;;8.80;7.38;;;;;;;32.05;71.35;100327.19;5050829;28;70881;-39
2023/07/27 08:26:15;;;;;;;9.40;6.95;;;;;;;32.03;71.38;100334.72;5059299;28;66153;-38
2023/07/27 08:28:47;;;;;;;8.98;6.93;;;;;;;31.97;71.51;100327.56;5053753;28;69902;-39
2023/07/27 08:31:19;;;;;;;8.15;7.10;;;;;;;31.97;71.31;100321.31;5047865;28;66228;-39
2023/07/27 08:33:54;;;;;;;13.27;7.57;;;;;;;32.07;71.31;100347.81;5054644;28;44253;-37
2023/07/27 08:36:25;;;;;;;8.13;6.78;;;;;;;32.04;71.39;100339.13;5049784;28;65816;-38
2023/07/27 08:38:58;;;;;;;10.85;7.40;;;;;;;32.00;71.74;100342.53;5055465;28;70442;-38
2023/07/27 08:41:30;;;;;;;7.00;6.30;;;;;;;32.03;71.50;100345.59;5055609;28;65529;-39
2023/07/27 08:44:02;;;;;;;9.73;6.70;;;;;;;31.90;71.32;100318.72;5046826;28;70299;-38
2023/07/27 08:46:35;;;;;;;10.05;7.32;;;;;;;32.01;71.48;100334.19;5057451;28;66080;-39
2023/07/27 08:49:13;;;;;;;9.75;7.35;;;;;;;31.98;71.47;100328.38;5057775;28;70467;-40
2023/07/27 08:51:45;;;;;;;16.92;7.13;;;;;;;31.96;71.32;100325.94;5050132;28;65405;-39
2023/07/27 08:54:16;;;;;;;9.18;6.72;;;;;;;31.99;71.58;100332.75;5057613;28;71734;-40
2023/07/27 08:56:49;;;;;;;8.35;7.00;;;;;;;31.98;71.42;100348.22;5051135;28;66169;-38
2023/07/27 08:59:24;;;;;;;9.05;7.07;;;;;;;32.00;71.24;100337.94;5058156;28;69409;-38
2023/07/27 09:01:55;;;;;;;8.65;6.93;;;;;;;31.98;71.13;100345.50;5054894;28;65797;-39
2023/07/27 09:04:27;;;;;;;7.93;7.13;;;;;;;31.95;71.24;100343.25;5053093;28;70133;-39
2023/07/27 09:07:08;;;;;;;13.45;7.40;;;;;;;31.43;71.13;100240.22;5057539;28;65396;-40
2023/07/27 09:09:40;;;;;;;10.18;6.78;;;;;;;31.92;71.05;100307.66;5055785;28;70886;-40
2023/07/27 09:12:16;;;;;;;;;;;;;;;31.60;72.54;100317.03;5056000;28;66058;-39
2023/07/27 09:14:48;;;;;;;13.02;7.38;;;;;;;31.88;71.17;100329.00;5050886;28;70394;-39
2023/07/27 09:17:19;;;;;;;10.18;6.95;;;;;;;31.88;71.23;100318.13;5055238;28;66632;-39
2023/07/27 09:19:52;;;;;;;7.53;6.75;;;;;;;31.77;71.47;100313.56;5050885;28;70324;-39
2023/07/27 09:22:24;;;;;;;8.05;7.25;;;;;;;31.88;71.23;100333.59;5052305;28;66141;-41
2023/07/27 09:24:58;;;;;;;12.98;7.05;;;;;;;31.63;71.10;100298.66;5057099;28;69237;-40
2023/07/27 09:27:42;;;;;;;9.25;6.80;;;;;;;31.33;71.00;100258.94;5053491;28;66213;-38
2023/07/27 09:30:17;;;;;;;7.53;6.75;;;;;;;31.36;71.04;100261.19;5052850;28;69935;-38
2023/07/27 09:32:49;;;;;;;9.73;7.18;;;;;;;31.85;71.06;100334.91;5054428;28;66382;-38
2023/07/27 09:35:22;;;;;;;7.32;6.63;;;;;;;31.30;71.07;100260.25;5051194;28;70516;-38
2023/07/27 09:37:54;;;;;;;7.32;6.35;;;;;;;31.80;70.97;100348.34;5053550;28;65517;-39
2023/07/27 09:40:25;;;;;;;8.93;6.57;;;;;;;31.77;71.13;100354.25;5058293;28;70604;-37
2023/07/27 09:42:57;;;;;;;7.93;7.00;;;;;;;31.73;71.08;100353.91;5057499;28;66613;-39
2023/07/27 09:45:37;;;;;;;7.45;6.75;;;;;;;31.75;71.07;100372.66;5056342;28;69835;-39
2023/07/27 09:48:09;;;;;;;10.63;6.40;;;;;;;31.79;71.16;100368.41;5050545;28;65344;-39
2023/07/27 09:50:43;;;;;;;7.07;6.35;;;;;;;31.23;70.96;100283.94;5056261;28;70143;-39
2023/07/27 09:53:16;;;;;;;7.78;6.97;;;;;;;31.49;71.20;100323.28;5057953;28;66627;-41
2023/07/27 09:55:51;;;;;;;7.55;6.15;;;;;;;31.76;71.13;100369.69;5054874;28;70356;-39
2023/07/27 09:58:23;;;;;;;7.32;6.55;;;;;;;31.24;70.89;100279.34;5057597;28;66313;-38
2023/07/27 10:00:55;;;;;;;6.78;6.13;;;;;;;31.75;71.00;100364.50;5053108;28;69421;-39
2023/07/27 10:03:26;;;;;;;8.48;6.57;;;;;;;31.72;71.35;100362.28;5054868;28;65903;-39
2023/07/27 10:05:58;;;;;;;6.80;6.10;;;;;;;31.68;70.96;100350.25;5054602;28;69196;-40
2023/07/27 10:08:30;;;;;;;8.52;7.15;;;;;;;31.54;71.17;100345.09;5052713;28;66163;-39
2023/07/27 10:11:03;;;;;;;10.30;6.70;;;;;;;31.48;72.52;100362.31;5051840;28;70112;-39
2023/07/27 10:13:47;;;;;;;8.93;6.78;;;;;;;30.24;74.31;100192.50;5055687;28;65978;-39
2023/07/27 10:16:20;;;;;;;6.65;6.15;;;;;;;31.15;75.53;100347.44;5039112;28;70589;-39
2023/07/27 10:18:52;;;;;;;7.40;6.50;;;;;;;31.14;76.10;100344.94;5056164;28;66503;-40
2023/07/27 10:21:28;;;;;;;7.90;6.78;;;;;;;31.00;76.53;100338.94;5056417;28;69793;-39
2023/07/27 10:24:04;;;;;;;12.40;7.43;;;;;;;31.03;76.70;100364.72;5056140;28;66072;-40
2023/07/27 10:26:41;;;;;;;16.65;7.10;;;;;;;31.07;77.03;100383.00;5049802;28;70097;-39
2023/07/27 10:29:27;;;;;;;11.25;7.65;;;;;;;31.04;77.05;100378.06;5051519;28;65819;-39
2023/07/27 10:32:12;;;;;;;11.60;7.70;;;;;;;30.16;76.78;100225.25;5052299;28;69614;-39
2023/07/27 10:34:43;;;;;;;9.52;7.43;;;;;;;31.10;77.31;100385.25;5057279;28;66507;-39
2023/07/27 10:37:15;;;;;;;23.52;7.78;;;;;;;31.06;77.30;100386.75;5041530;28;70000;-39
2023/07/27 10:39:48;;;;;;;16.05;7.80;;;;;;;31.05;77.75;100390.53;5057120;28;66609;-39
2023/07/27 10:42:23;;;;;;;16.38;7.75;;;;;;;31.13;77.39;100401.03;5055887;28;70356;-39
2023/07/27 10:44:57;;;;;;;17.48;7.70;;;;;;;30.54;78.33;100310.69;5044991;28;66290;-40
2023/07/27 10:47:38;;;;;;;14.27;8.38;;;;;;;31.22;77.39;100411.53;5054816;28;70397;-41
2023/07/27 10:50:10;;;;;;;20.05;8.40;;;;;;;31.34;76.07;100420.47;5055062;28;66550;-41
2023/07/27 10:52:45;;;;;;;13.18;8.18;;;;;;;31.43;75.79;100424.53;5056617;28;69767;-40
2023/07/27 10:55:26;;;;;;;12.60;8.40;;;;;;;31.48;75.43;100421.94;5042351;28;66090;-39
2023/07/27 10:58:00;;;;;;;9.80;7.22;;;;;;;31.47;74.94;100412.16;5042663;28;70263;-40
2023/07/27 11:00:36;;;;;;;13.50;7.60;;;;;;;31.46;75.11;100418.66;5057828;28;65379;-40
2023/07/27 11:03:09;;;;;;;13.38;8.50;;;;;;;31.40;74.74;100414.16;5051502;28;70426;-39
2023/07/27 11:05:41;;;;;;;10.25;7.18;;;;;;;31.58;74.45;100433.00;5052750;28;65393;-38
2023/07/27 11:08:12;;;;;;;12.30;8.05;;;;;;;31.26;75.00;100383.72;5055123;28;69710;-41
2023/07/27 11:10:43;;;;;;;9.00;8.10;;;;;;;31.57;74.89;100436.78;5041951;28;65380;-39
2023/07/27 11:13:15;;;;;;;11.65;7.65;;;;;;;31.58;75.04;100433.00;5053779;28;69765;-39
2023/07/27 11:15:47;;;;;;;9.27;7.28;;;;;;;31.56;74.85;100450.56;5047289;28;66185;-39
2023/07/27 11:18:22;;;;;;;16.02;8.35;;;;;;;31.44;75.05;100434.31;5049867;28;69116;-39
2023/07/27 11:20:54;;;;;;;11.15;7.45;;;;;;;31.59;74.72;100456.38;5052222;28;66066;-40
2023/07/27 11:23:27;;;;;;;14.38;9.27;;;;;;;30.61;74.42;100308.69;5052442;28;70694;-39
2023/07/27 11:25:59;;;;;;;10.43;7.70;;;;;;;31.61;74.56;100489.47;5056940;28;66625;-39
2023/07/27 11:28:33;;;;;;;11.18;7.88;;;;;;;31.60;74.52;100504.09;5056919;28;69289;-40
2023/07/27 11:31:09;;;;;;;14.15;7.22;;;;;;;31.12;74.45;100434.59;5056044;28;65633;-39
2023/07/27 11:33:40;;;;;;;13.02;7.63;;;;;;;31.58;74.47;100508.94;5048608;28;70014;-40
2023/07/27 11:36:12;;;;;;;8.70;7.25;;;;;;;31.59;74.65;100517.88;5054238;28;66216;-41
2023/07/27 11:38:43;;;;;;;8.60;6.57;;;;;;;31.57;74.68;100512.72;5053155;28;70122;-39
2023/07/27 11:41:15;;;;;;;8.07;6.00;;;;;;;31.57;74.23;100520.03;5055128;28;65363;-40
2023/07/27 11:44:07;;;;;;;13.37;5.97;;;;;;;31.43;74.44;100494.19;5049657;28;70247;-39
2023/07/27 11:46:48;;;;;;;11.60;5.90;;;;;;;31.57;74.21;100526.25;5056313;28;66164;-40
2023/07/27 11:49:23;;;;;;;6.45;5.75;;;;;;;31.56;74.18;100538.16;5057949;28;70494;-40
2023/07/27 11:51:55;;;;;;;6.85;5.90;;;;;;;31.58;74.38;100540.63;5058284;28;66055;-41
2023/07/27 11:54:28;;;;;;;12.00;4.78;;;;;;;31.02;74.23;100444.34;5055487;28;70193;-40